ZBAAZSAM

Guest
Details From ZBAA - Capital Intl
To ZSAM - Gaoqi
Flight Number -
Tags Generated
Created
Modified
Stats Distance 938 nm / 1,738 km
Max Altitude 0 ft / 0 m
Waypoints 3
Social Downloads 0
Likes 0
Share VATSIM

Download

Looking for another format? Having issues loading an existing format? Contact us
Advertisement - Login to hide

Notes

Generated

Route

ZBAA XMN ZSAM

ID Type Via Altitude Latitude Longitude Leg Dist Tot Dist Heading (true) Name
O ZBAA APT - 0 ft / 0 m 40.10211˚ 116.56969˚ - 0 nm - -
XMN VOR - 0 ft / 0 m 24.54167˚ 118.12167˚ 937 nm 937 nm 175° / 176° XIAMEN VOR-DME
O ZSAM APT - 0 ft / 0 m 24.53459˚ 118.11452˚ 0 nm 938 nm 223° / 223° -

Altitude Profile

Advertisement - Login to hide

Weather


0- 5 10 15 20 25 30 35+ Temperature / ° C

Clouds and Precipitation
Forecast for 2017-12-13 18:00 UTC. Updated an hour ago

Ground ~20,000 ft ~40,000 ft Winds

ZBAA

Details ICAO ZBAA (PEK)
Name CAPITAL INTL
Region China
Timezone Asia/Shanghai (UTC+8.0)
Stats Elevation 116 ft / 35 m (AMSL)
Location 40.080118° 116.584563°
Runways 2
Magnetic Variation 6.953° W

METAR

ZBAA 131830Z VRB01MPS CAVOK M05/M16 Q1036 NOSIG

Decode

TAF

Not found

Departure Runways

ID Width Length Bearing (true) Bearing (mag) Surface Threshold Offset Overrun Length
18L 197 ft / 60 m 12,436 ft / 3,790 m 173.12° 180.07° Asphalt 0 ft / 0 m 197 ft / 60 m
18R 164 ft / 50 m 10,506 ft / 3,202 m 174.11° 181.06° Asphalt 0 ft / 0 m 197 ft / 60 m
36L 164 ft / 50 m 10,506 ft / 3,202 m 354.11° 1.06° Asphalt 0 ft / 0 m 197 ft / 60 m
36R 197 ft / 60 m 12,436 ft / 3,790 m 353.12° 0.07° Asphalt 0 ft / 0 m 197 ft / 60 m

ZSAM

Details ICAO ZSAM (XMN)
Name GAOQI
Region China
Timezone Asia/Shanghai (UTC+8.0)
Stats Elevation 59 ft / 18 m (AMSL)
Location 24.544000° 118.127742°
Runways 1
Magnetic Variation 3.902° W

METAR

ZSAM 131800Z 03006MPS 9999 FEW033 16/10 Q1020 NOSIG

Decode

TAF

Not found

Destination Runways

ID Width Length Bearing (true) Bearing (mag) Surface Threshold Offset Overrun Length
05 148 ft / 45 m 11,147 ft / 3,398 m 51.96° 55.86° Asphalt 490 ft / 149 m 110 ft / 34 m
23 148 ft / 45 m 11,147 ft / 3,398 m 231.97° 235.87° Asphalt 660 ft / 201 m 190 ft / 58 m

Approach Navaids

Runway Type Ident Frequency Range Bearing (true) Bearing (mag) Slope Elevation
05 Localiser IWF 110.30 MHz 18 nm / 33 km 51.44° 55.34° - 85 ft / 26 m (AMSL)
05 Glidescope IWF 110.30 MHz 10 nm / 19 km 51.96° 55.87° 3.00° 85 ft / 26 m (AMSL)
05 DME IWF 110.30 MHz 18 nm / 33 km - - - 85 ft / 26 m (AMSL)
23 Localiser IKK 109.70 MHz 18 nm / 33 km 231.94° 235.84° - 85 ft / 26 m (AMSL)
23 Glidescope IKK 109.70 MHz 10 nm / 19 km 231.96° 235.87° 3.00° 85 ft / 26 m (AMSL)
23 DME IKK 109.70 MHz 18 nm / 33 km - - - 85 ft / 26 m (AMSL)

Popular Alternatives